SCJK weather

Juan Kemp Airport
Osorno, Los Lagos Region, Chile

Public forecast

Using degrees Celsius for public forecast. Weather courtesy of forecast.io.

Closest aviation weather report (METAR) to Juan Kemp Airport

Closest report is Cañal Bajo Carlos - Hott Siebert Airport, 35.5 nm (65.7 km) WNW. Retrieved 2020/08/05 13:00 UTC (23 minutes ago):

SCJO 051300Z AUTO 32008KT 9999 -RA FEW044/// SCT054/// BKN110/// 08/06 Q1016

Closest aviation forecast (TAF) to Juan Kemp Airport

Closest forecast is Cañal Bajo Carlos - Hott Siebert Airport, 35.5 nm (65.7 km) WNW. Retrieved 2020/08/05 12:33 UTC (50 minutes ago):

TAF SCJO 051109Z 0512/0524 30007KT 9000 -RA BKN020 OVC030 TN08/0512Z TX11/0518Z BECMG 0512/0514 9999 NSW BKN030 TEMPO 0516/0520 8000 -SHRA